CheckWX is a tool to help pilots better visualize weather data.  It is not intended as a substitute for an official pre-flight weather briefing.

20:37:59 UTC

1P1 METAR
Plymouth Municipal Airport
Plymouth, New Hampshire, USA
Current

23 mins ago

K1P1 222015Z AUTO 28012G19KT 10SM UP OVC034 02/00 A2908 RMK AO2 T00210000
Observed
Mar-22 @ 20:15 UTC
Wind
  • 280° at 12 KTS
  • Gusting to 19 KTS
Visibility
10 SM
Flight Rules
VFR
Conditions
Unknown precipitation
Cloud Levels
  • Overcast at 3,400' AGL
Temperature
C / 36°F
Dewpoint
C / 32°F
Humidity
87%
Altimeter
29.08" Hg
Pressure
984.72 hPa
Previous

43 mins ago

K1P1 221955Z AUTO 28011G18KT 7SM UP OVC032 02/00 A2908 RMK AO2 T00220001
Observed
Mar-22 @ 19:55 UTC
Wind
  • 280° at 11 KTS
  • Gusting to 18 KTS
Visibility
7 SM
Flight Rules
VFR
Conditions
Unknown precipitation
Cloud Levels
  • Overcast at 3,200' AGL
Temperature
C / 36°F
Dewpoint
C / 32°F
Humidity
87%
Altimeter
29.08" Hg
Pressure
984.72 hPa
Previous

1 hour ago

K1P1 221935Z AUTO 28012KT 4SM -RA BKN026 OVC030 02/00 A2909 RMK AO2 T00230003
Observed
Mar-22 @ 19:35 UTC
Wind
  • 280° at 12 KTS
Visibility
4 SM
Flight Rules
MVFR
Conditions
Light Rain
Cloud Levels
  • Broken at 2,600' AGL
  • Overcast at 3,000' AGL
Temperature
C / 36°F
Dewpoint
C / 32°F
Humidity
87%
Altimeter
29.09" Hg
Pressure
985.12 hPa